7PN3 weather

Public forecast

Using degrees Fahrenheit for public forecast. Weather courtesy of forecast.io.

Closest aviation weather report (METAR) to Suburban General Hospital Heliport

Closest report is Wings Field, 4.0 nm (7.3 km) E. Retrieved 2020/08/15 16:35 UTC (0 seconds ago):

KLOM 151635Z AUTO 05006KT 10SM CLR 26/17 A3001 RMK AO2 T02590168

Closest aviation forecast (TAF) to Suburban General Hospital Heliport

Closest forecast is Northeast Philadelphia Airport, 16.1 nm (29.8 km) ESE. Retrieved 2020/08/15 12:22 UTC (4 hours ago):

TAF KPNE 151120Z 1512/1612 VRB03KT P6SM BKN250 FM151300 06006KT P6SM BKN200 FM151800 09008G15KT P6SM BKN150 FM152300 11007KT P6SM OVC100 FM160300 07004KT P6SM VCSH OVC040 FM160600 07005KT P6SM -SHRA OVC025 FM161000 07008KT 6SM SHRA OVC015